createdAt,value
2022-08-17T00:00:49.437Z,64.31
2022-08-17T00:01:52.124Z,64.01
2022-08-17T00:02:42.871Z,64.81
2022-08-17T00:03:34.818Z,64.51
2022-08-17T00:04:34.815Z,65.21
2022-08-17T00:05:34.781Z,64.31
2022-08-17T00:06:34.770Z,64.61
2022-08-17T00:07:34.781Z,64.37
2022-08-17T00:08:34.747Z,66.08
2022-08-17T00:09:35.342Z,64.81
2022-08-17T00:10:34.735Z,65.78
2022-08-17T00:11:34.728Z,65.28
2022-08-17T00:12:43.284Z,64.88
2022-08-17T00:13:34.732Z,65.48
2022-08-17T00:14:34.709Z,64.37
2022-08-17T00:15:34.679Z,62.47
2022-08-17T00:16:50.379Z,63.57
2022-08-17T00:17:34.670Z,63.47
2022-08-17T00:19:06.395Z,63.37
2022-08-17T00:19:34.651Z,64.15
2022-08-17T00:20:35.047Z,64.75
2022-08-17T00:21:57.934Z,63.45
2022-08-17T00:22:37.995Z,61.74
2022-08-17T00:23:34.626Z,63.14
2022-08-17T00:24:34.581Z,63.64
2022-08-17T00:25:34.572Z,62.04
2022-08-17T00:26:44.716Z,63.54
2022-08-17T00:27:34.560Z,62.64
2022-08-17T00:28:34.572Z,63.34
2022-08-17T00:29:34.541Z,61.34
2022-08-17T00:30:51.316Z,62.24
2022-08-17T00:31:34.516Z,63.04
2022-08-17T00:33:16.083Z,63.04
2022-08-17T00:33:34.525Z,63.34
2022-08-17T00:34:34.475Z,62.44
2022-08-17T00:35:34.470Z,62.34
2022-08-17T00:36:34.470Z,63.04
2022-08-17T00:37:35.436Z,63.04
2022-08-17T00:38:34.452Z,63.34
2022-08-17T00:39:34.500Z,61.74
2022-08-17T00:40:40.671Z,63.24
2022-08-17T00:41:34.418Z,63.14
2022-08-17T00:42:34.396Z,63.84
2022-08-17T00:43:34.408Z,63.95
2022-08-17T00:44:34.369Z,63.04
2022-08-17T00:45:34.385Z,63.64
2022-08-17T00:46:34.360Z,63.14
2022-08-17T00:47:34.353Z,63.84
2022-08-17T00:48:34.362Z,64.04
2022-08-17T00:49:34.325Z,63.54
2022-08-17T00:50:34.354Z,64.04
2022-08-17T00:51:34.311Z,65.05
2022-08-17T00:52:34.298Z,65.05
2022-08-17T00:53:34.302Z,64.34
2022-08-17T00:54:42.096Z,65.15
2022-08-17T00:55:34.285Z,65.25
2022-08-17T00:56:34.248Z,65.45
2022-08-17T00:57:34.239Z,63.84
2022-08-17T00:58:36.136Z,64.04
2022-08-17T00:59:34.227Z,64.18
2022-08-17T01:00:34.215Z,64.37
2022-08-17T01:01:34.236Z,64.18
2022-08-17T01:02:40.375Z,64.78
2022-08-17T01:03:34.217Z,66.58
2022-08-17T01:04:34.161Z,67.08
2022-08-17T01:05:34.179Z,65.78
2022-08-17T01:06:34.157Z,65.88
2022-08-17T01:07:34.132Z,68.49
2022-08-17T01:08:34.153Z,66.28
2022-08-17T01:09:34.130Z,65.78
2022-08-17T01:10:58.345Z,68.49
2022-08-17T01:11:34.101Z,67.08
2022-08-17T01:12:34.076Z,67.58
2022-08-17T01:13:40.169Z,67.38
2022-08-17T01:14:34.063Z,67.49
2022-08-17T01:15:34.060Z,68.29
2022-08-17T01:16:34.048Z,67.29
2022-08-17T01:17:34.031Z,68.29
2022-08-17T01:18:34.074Z,67.52
2022-08-17T01:19:34.027Z,67.11
2022-08-17T01:20:41.847Z,68.02
2022-08-17T01:21:33.994Z,67.22
2022-08-17T01:22:33.983Z,68.62
2022-08-17T01:23:33.989Z,67.22
2022-08-17T01:24:33.952Z,67.52
2022-08-17T01:25:33.944Z,67.22
2022-08-17T01:26:33.934Z,68.12
2022-08-17T01:27:33.935Z,67.11
2022-08-17T01:28:53.865Z,66.82
2022-08-17T01:29:33.908Z,67.32
2022-08-17T01:30:56.802Z,67.02
2022-08-17T01:31:34.871Z,65.81
2022-08-17T01:32:33.871Z,66.71
2022-08-17T01:33:33.898Z,66.71
2022-08-17T01:34:42.542Z,68.22
2022-08-17T01:35:33.847Z,69.12
2022-08-17T01:36:33.845Z,67.61
2022-08-17T01:37:33.847Z,68.12
2022-08-17T01:38:33.853Z,67.72
2022-08-17T01:39:33.876Z,67.42
2022-08-17T01:40:33.797Z,68.32
2022-08-17T01:41:33.789Z,67.82
2022-08-17T01:42:33.783Z,67.42
2022-08-17T01:43:33.759Z,67.42
2022-08-17T01:44:33.774Z,67.72
2022-08-17T01:45:33.770Z,68.42
2022-08-17T01:46:33.723Z,68.12
2022-08-17T01:47:36.067Z,65.81
2022-08-17T01:48:33.703Z,66.31
2022-08-17T01:49:33.731Z,66.11
2022-08-17T01:50:33.694Z,66.21
2022-08-17T01:51:33.698Z,64.51
2022-08-17T01:52:33.666Z,64.68
2022-08-17T01:53:33.655Z,64.88
2022-08-17T01:54:33.658Z,65.48
2022-08-17T01:55:33.651Z,64.07
2022-08-17T01:56:33.630Z,66.08
2022-08-17T01:57:33.632Z,66.08
2022-08-17T01:58:33.616Z,67.08
2022-08-17T01:59:33.623Z,65.28
2022-08-17T02:00:59.858Z,65.78
2022-08-17T02:01:33.656Z,65.58
2022-08-17T02:02:33.577Z,65.38
2022-08-17T02:03:33.555Z,65.48
2022-08-17T02:04:33.576Z,65.48
2022-08-17T02:05:33.550Z,64.78
2022-08-17T02:06:44.980Z,66.58
2022-08-17T02:07:33.515Z,66.38
2022-08-17T02:08:37.044Z,64.88
2022-08-17T02:09:33.536Z,65.18
2022-08-17T02:10:33.981Z,65.38
2022-08-17T02:11:33.489Z,64.48
2022-08-17T02:12:37.900Z,65.38
2022-08-17T02:13:33.453Z,66.28
2022-08-17T02:14:33.456Z,66.38
2022-08-17T02:15:33.425Z,66.78
2022-08-17T02:16:37.854Z,66.28
2022-08-17T02:17:33.401Z,66.18
2022-08-17T02:18:33.397Z,65.78
2022-08-17T02:19:33.421Z,65.98
2022-08-17T02:20:42.189Z,66.18
2022-08-17T02:21:33.368Z,65.88
2022-08-17T02:22:33.362Z,66.18
2022-08-17T02:23:33.346Z,66.08
2022-08-17T02:24:58.865Z,66.38
2022-08-17T02:25:33.346Z,66.88
2022-08-17T02:26:33.320Z,66.88
2022-08-17T02:27:33.307Z,70.59
2022-08-17T02:28:33.301Z,68.42
2022-08-17T02:29:33.295Z,66.91
2022-08-17T02:31:01.639Z,66.82
2022-08-17T02:31:33.266Z,66.41
2022-08-17T02:32:33.269Z,66.41
2022-08-17T02:33:43.266Z,66.82
2022-08-17T02:34:33.255Z,66.41
2022-08-17T02:35:33.224Z,66.21
2022-08-17T02:36:33.224Z,66.11
2022-08-17T02:37:33.191Z,67.61
2022-08-17T02:38:33.208Z,67.72
2022-08-17T02:39:33.242Z,68.42
2022-08-17T02:40:36.135Z,68.12
2022-08-17T02:41:33.167Z,67.72
2022-08-17T02:42:33.164Z,67.82
2022-08-17T02:43:33.140Z,68.52
2022-08-17T02:44:39.180Z,68.32
2022-08-17T02:45:33.116Z,68.52
2022-08-17T02:46:33.104Z,67.92
2022-08-17T02:47:33.103Z,67.82
2022-08-17T02:48:33.087Z,67.92
2022-08-17T02:49:33.110Z,67.61
2022-08-17T02:50:33.085Z,67.61
2022-08-17T02:51:33.046Z,67.22
2022-08-17T02:52:42.676Z,67.32
2022-08-17T02:53:35.963Z,67.22
2022-08-17T02:54:39.692Z,67.42
2022-08-17T02:55:33.010Z,68.42
2022-08-17T02:56:33.015Z,69.42
2022-08-17T02:57:32.995Z,71.63
2022-08-17T02:58:35.522Z,70.53
2022-08-17T02:59:32.982Z,69.12
2022-08-17T03:00:32.974Z,68.72
2022-08-17T03:01:33.048Z,69.12
2022-08-17T03:02:32.935Z,69.62
2022-08-17T03:03:32.934Z,69.92
2022-08-17T03:04:35.309Z,70.12
2022-08-17T03:05:32.918Z,70.43
2022-08-17T03:06:32.894Z,70.53
2022-08-17T03:07:32.889Z,70.93
2022-08-17T03:08:32.881Z,71.03
2022-08-17T03:09:32.888Z,70.83
2022-08-17T03:10:32.861Z,71.73
2022-08-17T03:11:32.845Z,71.93
2022-08-17T03:12:32.831Z,73.67
2022-08-17T03:13:32.813Z,72.47
2022-08-17T03:14:32.843Z,72.77
2022-08-17T03:15:32.810Z,72.47
2022-08-17T03:16:32.788Z,71.77
2022-08-17T03:17:32.770Z,71.86
2022-08-17T03:18:32.781Z,71.97
2022-08-17T03:19:32.791Z,71.66
2022-08-17T03:20:32.765Z,71.36
2022-08-17T03:21:32.740Z,71.47
2022-08-17T03:22:47.939Z,71.77
2022-08-17T03:23:32.729Z,71.86
2022-08-17T03:24:32.734Z,74.07
2022-08-17T03:25:32.704Z,73.47
2022-08-17T03:26:32.704Z,74.07
2022-08-17T03:27:32.691Z,73.77
2022-08-17T03:28:32.678Z,74.68
2022-08-17T03:29:32.690Z,74.71
2022-08-17T03:30:32.647Z,73.10
2022-08-17T03:31:32.664Z,74.21
2022-08-17T03:32:32.636Z,73.41
2022-08-17T03:33:32.626Z,73.50
2022-08-17T03:34:32.624Z,73.41
2022-08-17T03:35:32.587Z,74.91
2022-08-17T03:36:32.600Z,75.31
2022-08-17T03:37:32.581Z,75.31
2022-08-17T03:38:39.379Z,74.88
2022-08-17T03:39:32.694Z,76.58
2022-08-17T03:40:55.058Z,74.57
2022-08-17T03:41:32.529Z,76.38
2022-08-17T03:42:32.949Z,74.31
2022-08-17T03:43:32.523Z,74.01
2022-08-17T03:44:32.519Z,74.31
2022-08-17T03:45:32.497Z,74.81
2022-08-17T03:46:35.074Z,75.71
2022-08-17T03:47:32.474Z,74.41
2022-08-17T03:48:32.473Z,74.51
2022-08-17T03:49:32.466Z,73.61
2022-08-17T03:50:32.436Z,73.50
2022-08-17T03:51:33.482Z,73.91
2022-08-17T03:52:32.414Z,73.30
2022-08-17T03:53:32.412Z,73.10
2022-08-17T03:54:32.413Z,73.10
2022-08-17T03:55:36.029Z,73.30
2022-08-17T03:56:32.396Z,72.71
2022-08-17T03:57:32.365Z,74.01
2022-08-17T03:58:32.395Z,73.50
2022-08-17T03:59:32.340Z,73.81
2022-08-17T04:00:32.334Z,72.20
2022-08-17T04:01:32.353Z,71.00
2022-08-17T04:02:32.331Z,72.50
2022-08-17T04:03:32.317Z,72.10
2022-08-17T04:04:32.297Z,72.80
2022-08-17T04:05:32.275Z,71.80
2022-08-17T04:06:32.271Z,72.40
2022-08-17T04:07:32.275Z,71.50
2022-08-17T04:08:32.299Z,71.50
2022-08-17T04:09:32.241Z,73.30
2022-08-17T04:10:33.249Z,72.20
2022-08-17T04:11:32.232Z,72.30
2022-08-17T04:12:32.210Z,72.00
2022-08-17T04:13:32.238Z,71.90
2022-08-17T04:14:32.201Z,71.09
2022-08-17T04:15:32.186Z,71.20
2022-08-17T04:16:32.165Z,71.40
2022-08-17T04:17:32.169Z,70.70
2022-08-17T04:18:32.180Z,69.59
2022-08-17T04:19:32.146Z,69.59
2022-08-17T04:20:32.134Z,69.26
2022-08-17T04:21:32.125Z,69.06
2022-08-17T04:22:34.403Z,68.76
2022-08-17T04:23:32.131Z,68.55
2022-08-17T04:24:32.082Z,68.45
2022-08-17T04:25:32.069Z,68.45
2022-08-17T04:26:53.331Z,69.22
2022-08-17T04:27:32.051Z,70.12
2022-08-17T04:28:32.060Z,72.74
2022-08-17T04:29:50.091Z,72.43
2022-08-17T04:30:32.043Z,72.87
2022-08-17T04:31:32.010Z,73.27
2022-08-17T04:33:02.211Z,72.77
2022-08-17T04:33:31.996Z,72.87
2022-08-17T04:34:32.013Z,73.07
2022-08-17T04:35:31.971Z,73.87
2022-08-17T04:36:31.984Z,74.68
2022-08-17T04:37:31.946Z,76.08
2022-08-17T04:38:31.998Z,76.98
2022-08-17T04:39:33.845Z,77.28
2022-08-17T04:40:31.916Z,77.48
2022-08-17T04:41:31.898Z,77.32
2022-08-17T04:42:31.891Z,78.73
2022-08-17T04:43:31.898Z,78.53
2022-08-17T04:44:37.607Z,79.83
2022-08-17T04:45:32.246Z,79.87
2022-08-17T04:46:31.867Z,79.17
2022-08-17T04:47:31.836Z,79.87
2022-08-17T04:48:36.234Z,79.87
2022-08-17T04:49:31.831Z,80.77
2022-08-17T04:50:31.826Z,80.47
2022-08-17T04:51:31.795Z,81.78
2022-08-17T04:52:43.311Z,83.23
2022-08-17T04:53:31.815Z,82.12
2022-08-17T04:54:31.765Z,82.42
2022-08-17T04:55:31.752Z,83.73
2022-08-17T04:56:31.755Z,84.23
2022-08-17T04:57:39.463Z,85.44
2022-08-17T04:58:31.773Z,85.74
2022-08-17T04:59:31.727Z,86.18
2022-08-17T05:00:31.707Z,86.99
2022-08-17T05:01:31.801Z,87.99
2022-08-17T05:02:31.687Z,87.79
2022-08-17T05:03:31.709Z,88.94
2022-08-17T05:04:34.299Z,89.44
2022-08-17T05:05:31.660Z,88.13
2022-08-17T05:06:31.662Z,87.23
2022-08-17T05:07:31.812Z,88.84
2022-08-17T05:08:31.641Z,87.87
2022-08-17T05:09:31.629Z,87.77
2022-08-17T05:10:31.610Z,87.37
2022-08-17T05:11:31.597Z,88.28
2022-08-17T05:12:31.578Z,89.99
2022-08-17T05:13:31.595Z,90.99
2022-08-17T05:14:33.595Z,91.94
2022-08-17T05:15:33.115Z,92.35
2022-08-17T05:16:31.558Z,93.35
2022-08-17T05:17:31.554Z,93.55
2022-08-17T05:18:31.550Z,94.56
2022-08-17T05:19:31.504Z,93.86
2022-08-17T05:20:31.516Z,93.90
2022-08-17T05:21:31.556Z,94.40
2022-08-17T05:22:31.484Z,94.60
2022-08-17T05:23:35.559Z,94.20
2022-08-17T05:24:42.543Z,95.31
2022-08-17T05:25:34.444Z,94.60
2022-08-17T05:26:31.447Z,95.01
2022-08-17T05:27:35.203Z,95.41
2022-08-17T05:28:31.427Z,95.61
2022-08-17T05:29:35.329Z,94.81
2022-08-17T05:30:31.393Z,95.92
2022-08-17T05:31:31.420Z,95.31
2022-08-17T05:32:38.322Z,95.21
2022-08-17T05:33:31.403Z,95.61
2022-08-17T05:34:31.370Z,96.12
2022-08-17T05:35:31.380Z,95.61
2022-08-17T05:36:42.154Z,94.91
2022-08-17T05:37:31.339Z,95.51
2022-08-17T05:38:31.336Z,96.52
2022-08-17T05:39:31.397Z,95.11
2022-08-17T05:40:32.929Z,94.81
2022-08-17T05:41:31.281Z,95.81
2022-08-17T05:42:31.283Z,95.72
2022-08-17T05:43:31.532Z,95.92
2022-08-17T05:44:31.248Z,96.01
2022-08-17T05:45:54.455Z,95.61
2022-08-17T05:46:31.248Z,95.21
2022-08-17T05:47:31.211Z,95.41
2022-08-17T05:48:39.663Z,95.61
2022-08-17T05:49:31.225Z,96.42
2022-08-17T05:50:31.428Z,95.61
2022-08-17T05:51:31.172Z,95.31
2022-08-17T05:52:31.179Z,94.71
2022-08-17T05:53:31.385Z,94.60
2022-08-17T05:54:31.154Z,95.61
2022-08-17T05:55:31.140Z,96.01
2022-08-17T05:56:31.137Z,96.01
2022-08-17T05:57:31.107Z,95.51
2022-08-17T05:58:31.124Z,96.12
2022-08-17T05:59:31.125Z,94.71
2022-08-17T06:00:31.343Z,94.20
2022-08-17T06:01:31.119Z,94.40
2022-08-17T06:02:31.129Z,93.70
2022-08-17T06:03:31.245Z,94.51
2022-08-17T06:04:31.052Z,94.91
2022-08-17T06:05:31.022Z,95.61
2022-08-17T06:06:31.593Z,96.01
2022-08-17T06:07:31.000Z,96.32
2022-08-17T06:08:31.039Z,96.62
2022-08-17T06:09:33.819Z,96.42
2022-08-17T06:10:30.988Z,96.42
2022-08-17T06:11:30.979Z,96.42
2022-08-17T06:12:30.950Z,96.62
2022-08-17T06:13:30.937Z,96.92
2022-08-17T06:14:30.967Z,97.13
2022-08-17T06:15:31.139Z,97.73
2022-08-17T06:16:34.136Z,98.13
2022-08-17T06:17:31.492Z,97.99
2022-08-17T06:18:30.893Z,97.89
2022-08-17T06:19:32.058Z,97.99
2022-08-17T06:20:30.877Z,98.59
2022-08-17T06:21:32.314Z,98.69
2022-08-17T06:22:31.126Z,98.69
2022-08-17T06:23:30.845Z,98.44
2022-08-17T06:24:30.861Z,98.14
2022-08-17T06:25:30.997Z,97.44
2022-08-17T06:26:39.673Z,97.13
2022-08-17T06:27:30.793Z,95.53
2022-08-17T06:28:30.792Z,96.89
2022-08-17T06:29:30.808Z,95.48
2022-08-17T06:30:58.659Z,93.87
2022-08-17T06:31:30.765Z,95.02
2022-08-17T06:32:30.753Z,94.12
2022-08-17T06:33:30.728Z,92.60
2022-08-17T06:34:30.748Z,92.00
2022-08-17T06:35:31.972Z,92.30
2022-08-17T06:36:30.709Z,93.21
2022-08-17T06:37:30.683Z,93.11
2022-08-17T06:38:37.702Z,94.01
2022-08-17T06:39:30.814Z,94.42
2022-08-17T06:40:30.684Z,94.82
2022-08-17T06:41:30.648Z,95.12
2022-08-17T06:42:54.791Z,95.42
2022-08-17T06:43:30.649Z,96.23
2022-08-17T06:44:43.336Z,95.83
2022-08-17T06:45:31.583Z,95.02
2022-08-17T06:46:30.603Z,95.22
2022-08-17T06:47:30.596Z,94.72
2022-08-17T06:48:30.582Z,95.83
2022-08-17T06:49:30.606Z,94.32
2022-08-17T06:50:30.571Z,95.42
2022-08-17T06:51:30.545Z,96.03
2022-08-17T06:52:47.297Z,95.83
2022-08-17T06:53:30.547Z,95.53
2022-08-17T06:54:30.533Z,95.53
2022-08-17T06:55:34.536Z,96.13
2022-08-17T06:56:53.918Z,95.12
2022-08-17T06:57:30.770Z,96.23
2022-08-17T06:58:30.467Z,96.53
2022-08-17T06:59:47.162Z,96.53
2022-08-17T07:00:30.548Z,95.32
2022-08-17T07:01:30.513Z,95.73
2022-08-17T07:03:02.378Z,96.33
2022-08-17T07:03:30.427Z,96.33
2022-08-17T07:04:30.436Z,96.43
2022-08-17T07:05:30.491Z,96.33
2022-08-17T07:06:30.394Z,96.88
2022-08-17T07:07:30.661Z,96.88
2022-08-17T07:08:33.952Z,97.08
2022-08-17T07:09:30.390Z,97.38
2022-08-17T07:10:30.351Z,97.28
2022-08-17T07:11:30.345Z,97.38
2022-08-17T07:12:30.319Z,97.38
2022-08-17T07:13:30.318Z,96.48
2022-08-17T07:14:30.364Z,96.37
2022-08-17T07:15:30.316Z,96.37
2022-08-17T07:16:30.297Z,97.28
2022-08-17T07:17:47.699Z,97.69
2022-08-17T07:18:30.294Z,97.18
2022-08-17T07:19:30.289Z,97.49
2022-08-17T07:20:30.239Z,97.69
2022-08-17T07:21:30.239Z,96.88
2022-08-17T07:22:30.228Z,97.38
2022-08-17T07:23:30.234Z,97.38
2022-08-17T07:24:30.743Z,97.78
2022-08-17T07:25:30.208Z,97.58
2022-08-17T07:26:30.348Z,96.88
2022-08-17T07:27:30.184Z,96.88
2022-08-17T07:28:30.172Z,96.28
2022-08-17T07:29:30.170Z,95.57
2022-08-17T07:30:30.144Z,96.78
2022-08-17T07:31:30.128Z,96.48
2022-08-17T07:32:30.126Z,95.17
2022-08-17T07:33:30.150Z,95.87
2022-08-17T07:34:30.089Z,96.37
2022-08-17T07:35:37.559Z,96.68
2022-08-17T07:36:30.345Z,97.08
2022-08-17T07:37:30.255Z,97.44
2022-08-17T07:38:30.069Z,97.38
2022-08-17T07:39:30.104Z,97.38
2022-08-17T07:40:30.098Z,96.88
2022-08-17T07:41:53.224Z,97.38
2022-08-17T07:42:30.012Z,97.28
2022-08-17T07:43:31.202Z,96.28
2022-08-17T07:44:30.006Z,95.57
2022-08-17T07:45:29.994Z,95.07
2022-08-17T07:46:30.038Z,95.77
2022-08-17T07:47:29.984Z,96.08
2022-08-17T07:48:30.076Z,96.17
2022-08-17T07:49:29.942Z,96.28
2022-08-17T07:50:29.936Z,96.17
2022-08-17T07:51:29.937Z,96.37
2022-08-17T07:52:48.472Z,95.17
2022-08-17T07:53:29.941Z,96.28
2022-08-17T07:54:29.887Z,96.78
2022-08-17T07:55:29.883Z,96.88
2022-08-17T07:56:34.650Z,96.58
2022-08-17T07:57:30.214Z,96.37
2022-08-17T07:58:29.869Z,96.28
2022-08-17T07:59:33.742Z,96.68
2022-08-17T08:00:32.170Z,96.78
2022-08-17T08:01:41.877Z,95.07
2022-08-17T08:02:33.584Z,95.93
2022-08-17T08:03:29.891Z,94.87
2022-08-17T08:05:49.133Z,94.62
2022-08-17T08:06:29.765Z,96.53
2022-08-17T08:07:29.761Z,96.73
2022-08-17T08:08:29.753Z,96.63
2022-08-17T08:09:29.772Z,97.13
2022-08-17T08:10:29.716Z,97.24
2022-08-17T08:11:29.734Z,97.03
2022-08-17T08:12:33.437Z,96.73
2022-08-17T08:13:29.709Z,96.93
2022-08-17T08:14:29.686Z,96.83
2022-08-17T08:15:29.675Z,97.29
2022-08-17T08:16:29.799Z,97.19
2022-08-17T08:17:29.643Z,96.98
2022-08-17T08:18:53.438Z,96.98
2022-08-17T08:19:29.649Z,96.39
2022-08-17T08:20:52.168Z,96.69
2022-08-17T08:21:29.614Z,96.28
2022-08-17T08:22:29.607Z,96.43
2022-08-17T08:23:29.604Z,96.89
2022-08-17T08:24:30.866Z,97.39
2022-08-17T08:25:29.563Z,96.93
2022-08-17T08:26:29.577Z,96.98
2022-08-17T08:27:29.557Z,97.13
2022-08-17T08:28:29.556Z,97.29
2022-08-17T08:29:29.590Z,97.39
2022-08-17T08:30:29.547Z,96.59
2022-08-17T08:31:29.502Z,96.89
2022-08-17T08:32:29.499Z,97.69
2022-08-17T08:33:29.499Z,97.69
2022-08-17T08:35:00.911Z,97.49
2022-08-17T08:35:29.500Z,97.89
2022-08-17T08:37:14.955Z,97.24
2022-08-17T08:37:35.547Z,98.10
2022-08-17T08:38:29.448Z,98.50
2022-08-17T08:39:29.474Z,96.63
2022-08-17T08:40:29.439Z,96.33
2022-08-17T08:41:29.481Z,96.93
2022-08-17T08:42:29.380Z,96.93
2022-08-17T08:43:29.578Z,97.03
2022-08-17T08:45:00.296Z,96.63
2022-08-17T08:45:29.361Z,96.98
2022-08-17T08:46:29.360Z,96.03
2022-08-17T08:47:29.331Z,96.78
2022-08-17T08:48:55.956Z,97.19
2022-08-17T08:49:59.140Z,97.99
2022-08-17T08:50:37.049Z,97.79
2022-08-17T08:51:29.294Z,97.79
2022-08-17T08:52:29.275Z,97.69
2022-08-17T08:53:29.312Z,97.79
2022-08-17T08:54:29.266Z,98.39
2022-08-17T08:55:29.274Z,98.25
2022-08-17T08:56:29.251Z,98.35
2022-08-17T08:57:33.733Z,98.25
2022-08-17T08:58:31.604Z,98.05
2022-08-17T08:59:29.247Z,97.95
2022-08-17T09:00:29.190Z,97.95
2022-08-17T09:01:29.197Z,98.15
2022-08-17T09:02:29.184Z,98.30
2022-08-17T09:03:51.893Z,98.20
2022-08-17T09:04:29.175Z,98.40
2022-08-17T09:05:29.142Z,98.00
2022-08-17T09:06:37.736Z,98.10
2022-08-17T09:07:29.197Z,96.30
2022-08-17T09:08:29.136Z,96.69
2022-08-17T09:09:29.102Z,97.00
2022-08-17T09:10:29.098Z,96.95
2022-08-17T09:11:29.091Z,97.25
2022-08-17T09:12:29.094Z,96.55
2022-08-17T09:13:29.088Z,97.55
2022-08-17T09:14:29.051Z,96.65
2022-08-17T09:15:29.049Z,96.65
2022-08-17T09:16:29.051Z,96.45
2022-08-17T09:17:29.027Z,96.04
2022-08-17T09:19:02.770Z,95.14
2022-08-17T09:19:29.019Z,96.75
2022-08-17T09:20:29.016Z,95.84
2022-08-17T09:21:29.059Z,94.94
2022-08-17T09:22:29.015Z,94.84
2022-08-17T09:23:29.029Z,95.44
2022-08-17T09:24:28.968Z,94.74
2022-08-17T09:25:29.005Z,94.64
2022-08-17T09:26:28.975Z,94.74
2022-08-17T09:27:28.935Z,95.04
2022-08-17T09:28:28.943Z,95.54
2022-08-17T09:29:28.910Z,95.84
2022-08-17T09:30:28.877Z,95.14
2022-08-17T09:31:33.258Z,95.75
2022-08-17T09:32:28.856Z,94.74
2022-08-17T09:33:28.935Z,95.24
2022-08-17T09:34:33.216Z,94.04
2022-08-17T09:35:36.475Z,93.13
2022-08-17T09:36:28.820Z,94.29
2022-08-17T09:37:28.828Z,95.30
2022-08-17T09:38:32.284Z,95.90
2022-08-17T09:39:28.852Z,94.79
2022-08-17T09:40:28.784Z,94.59
2022-08-17T09:41:28.781Z,93.19
2022-08-17T09:42:28.770Z,93.59
2022-08-17T09:43:28.775Z,93.69
2022-08-17T09:44:28.731Z,93.59
2022-08-17T09:45:28.750Z,92.99
2022-08-17T09:46:28.728Z,92.58
2022-08-17T09:47:28.737Z,93.59
2022-08-17T09:48:28.731Z,93.29
2022-08-17T09:49:28.696Z,95.50
2022-08-17T09:50:57.373Z,93.99
2022-08-17T09:51:28.669Z,93.49
2022-08-17T09:52:28.669Z,93.59
2022-08-17T09:53:31.774Z,92.58
2022-08-17T09:54:39.070Z,93.23
2022-08-17T09:55:28.626Z,93.74
2022-08-17T09:56:28.633Z,93.54
2022-08-17T09:57:30.654Z,91.32
2022-08-17T09:58:29.182Z,91.72
2022-08-17T09:59:35.949Z,94.04
2022-08-17T10:00:28.591Z,95.04
2022-08-17T10:01:28.648Z,96.15
2022-08-17T10:02:28.572Z,97.15
2022-08-17T10:03:28.575Z,96.95
2022-08-17T10:04:29.738Z,97.60
2022-08-17T10:05:28.537Z,96.80
2022-08-17T10:06:28.513Z,95.09
2022-08-17T10:07:28.513Z,95.39
2022-08-17T10:08:28.488Z,94.89
2022-08-17T10:09:28.498Z,90.66
2022-08-17T10:10:28.480Z,92.23
2022-08-17T10:11:33.738Z,93.54
2022-08-17T10:12:30.073Z,94.34
2022-08-17T10:13:28.442Z,94.94
2022-08-17T10:14:37.836Z,95.54
2022-08-17T10:15:28.435Z,94.64
2022-08-17T10:16:28.406Z,95.14
2022-08-17T10:17:28.391Z,91.42
2022-08-17T10:18:31.954Z,93.59
2022-08-17T10:19:28.382Z,92.79
2022-08-17T10:20:28.382Z,91.18
2022-08-17T10:21:28.361Z,90.78
2022-08-17T10:22:35.010Z,91.03
2022-08-17T10:23:28.598Z,91.03
2022-08-17T10:24:28.334Z,91.54
2022-08-17T10:25:42.882Z,92.44
2022-08-17T10:26:28.301Z,92.34
2022-08-17T10:27:28.302Z,93.60
2022-08-17T10:28:30.095Z,92.60
2022-08-17T10:29:29.000Z,93.10
2022-08-17T10:30:28.258Z,92.60
2022-08-17T10:31:34.605Z,90.99
2022-08-17T10:32:28.247Z,92.20
2022-08-17T10:33:28.255Z,92.66
2022-08-17T10:34:28.226Z,89.65
2022-08-17T10:35:28.258Z,89.54
2022-08-17T10:36:28.208Z,89.04
2022-08-17T10:37:28.182Z,87.34
2022-08-17T10:38:28.198Z,90.05
2022-08-17T10:39:28.223Z,87.70
2022-08-17T10:40:28.198Z,89.40
2022-08-17T10:41:28.144Z,84.99
2022-08-17T10:42:30.906Z,86.60
2022-08-17T10:43:28.153Z,88.70
2022-08-17T10:44:38.694Z,90.31
2022-08-17T10:45:28.106Z,88.60
2022-08-17T10:46:31.145Z,89.66
2022-08-17T10:47:28.094Z,89.96
2022-08-17T10:48:28.085Z,91.36
2022-08-17T10:49:28.085Z,91.86
2022-08-17T10:50:28.051Z,90.46
2022-08-17T10:51:28.037Z,90.77
2022-08-17T10:52:28.030Z,91.47
2022-08-17T10:53:28.075Z,90.70
2022-08-17T10:54:27.999Z,89.50
2022-08-17T10:55:27.992Z,89.61
2022-08-17T10:56:27.980Z,90.11
2022-08-17T10:57:27.979Z,88.16
2022-08-17T10:58:27.992Z,90.16
2022-08-17T10:59:27.948Z,89.76
2022-08-17T11:00:27.971Z,88.71
2022-08-17T11:01:27.985Z,88.32
2022-08-17T11:02:27.950Z,94.98
2022-08-17T11:03:27.928Z,94.54
2022-08-17T11:04:27.899Z,91.89
2022-08-17T11:05:27.891Z,90.35
2022-08-17T11:06:27.896Z,91.20
2022-08-17T11:07:27.887Z,93.96
2022-08-17T11:08:27.891Z,89.12
2022-08-17T11:09:27.850Z,86.52
2022-08-17T11:10:27.839Z,85.58
2022-08-17T11:11:27.840Z,85.39
2022-08-17T11:12:27.815Z,83.00
2022-08-17T11:13:27.830Z,79.90
2022-08-17T11:14:27.796Z,82.26
2022-08-17T11:15:27.800Z,80.66
2022-08-17T11:16:27.773Z,81.16
2022-08-17T11:17:27.761Z,78.27
2022-08-17T11:18:27.773Z,80.92
2022-08-17T11:19:27.754Z,81.82
2022-08-17T11:20:27.735Z,79.63
2022-08-17T11:21:27.723Z,79.93
2022-08-17T11:22:31.363Z,79.13
2022-08-17T11:23:27.720Z,74.44
2022-08-17T11:24:27.713Z,75.40
2022-08-17T11:25:27.688Z,76.70
2022-08-17T11:26:27.671Z,76.79
2022-08-17T11:27:27.660Z,77.20
2022-08-17T11:28:27.684Z,77.56
2022-08-17T11:29:27.641Z,77.66
2022-08-17T11:30:27.648Z,73.74
2022-08-17T11:31:38.456Z,77.52
2022-08-17T11:32:27.631Z,75.53
2022-08-17T11:33:27.632Z,77.58
2022-08-17T11:34:27.602Z,75.69
2022-08-17T11:35:27.570Z,77.55
2022-08-17T11:36:27.580Z,72.87
2022-08-17T11:37:27.552Z,67.77
2022-08-17T11:38:28.549Z,72.94
2022-08-17T11:39:27.629Z,76.91
2022-08-17T11:40:27.523Z,72.20
2022-08-17T11:41:27.561Z,72.60
2022-08-17T11:42:27.772Z,72.60
2022-08-17T11:43:27.519Z,74.26
2022-08-17T11:44:27.478Z,70.18
2022-08-17T11:45:31.714Z,67.38
2022-08-17T11:46:27.489Z,71.04
2022-08-17T11:47:27.646Z,66.78
2022-08-17T11:48:28.889Z,67.97
2022-08-17T11:49:27.444Z,68.76
2022-08-17T11:50:28.097Z,66.94
2022-08-17T11:51:27.413Z,67.14
2022-08-17T11:52:28.267Z,68.63
2022-08-17T11:53:27.419Z,67.21
2022-08-17T11:54:34.935Z,66.71
2022-08-17T11:55:38.232Z,68.60
2022-08-17T11:56:27.361Z,66.28
2022-08-17T11:57:27.388Z,65.20
2022-08-17T11:58:27.418Z,67.14
2022-08-17T11:59:27.356Z,66.75
2022-08-17T12:00:27.325Z,67.35
2022-08-17T12:01:27.308Z,62.36
2022-08-17T12:02:27.301Z,65.53
2022-08-17T12:03:27.385Z,62.23
2022-08-17T12:04:27.398Z,60.55
2022-08-17T12:05:27.369Z,63.02
2022-08-17T12:06:30.789Z,62.70
2022-08-17T12:07:27.278Z,60.42
2022-08-17T12:08:27.307Z,60.52
2022-08-17T12:09:27.240Z,61.58
2022-08-17T12:10:27.216Z,61.08
2022-08-17T12:12:11.090Z,58.32
2022-08-17T12:12:27.195Z,61.38
2022-08-17T12:13:33.984Z,62.17
2022-08-17T12:14:45.348Z,61.68
2022-08-17T12:15:27.206Z,59.60
2022-08-17T12:16:27.155Z,60.86
2022-08-17T12:17:41.206Z,56.84
2022-08-17T12:18:27.173Z,56.04
2022-08-17T12:19:27.125Z,59.80
2022-08-17T12:20:27.121Z,58.09
2022-08-17T12:21:27.114Z,55.62
2022-08-17T12:22:27.109Z,55.52
2022-08-17T12:23:27.093Z,57.20
2022-08-17T12:24:27.084Z,52.14
2022-08-17T12:25:27.079Z,55.00
2022-08-17T12:26:27.073Z,57.57
2022-08-17T12:28:04.197Z,56.68
2022-08-17T12:28:27.077Z,53.20
2022-08-17T12:29:35.566Z,54.78
2022-08-17T12:30:27.015Z,53.89
2022-08-17T12:31:27.017Z,55.24
2022-08-17T12:32:27.031Z,56.01
2022-08-17T12:33:28.463Z,53.05
2022-08-17T12:34:26.968Z,52.36
2022-08-17T12:35:26.981Z,50.07
2022-08-17T12:36:26.946Z,45.04
2022-08-17T12:37:26.977Z,49.67
2022-08-17T12:38:33.199Z,49.35
2022-08-17T12:39:26.949Z,50.34
2022-08-17T12:40:26.923Z,51.10
2022-08-17T12:41:26.961Z,49.13
2022-08-17T12:42:26.905Z,51.79
2022-08-17T12:43:26.888Z,50.98
2022-08-17T12:44:26.864Z,51.67
2022-08-17T12:45:26.850Z,51.15
2022-08-17T12:46:26.855Z,44.36
2022-08-17T12:47:29.497Z,48.30
2022-08-17T12:48:26.836Z,44.24
2022-08-17T12:49:26.807Z,49.85
2022-08-17T12:50:28.485Z,44.81
2022-08-17T12:51:26.803Z,47.17
2022-08-17T12:52:26.812Z,43.24
2022-08-17T12:53:26.780Z,46.97